Pahrump, Nevada Weather observations

Data are for observation ending at time listed.
 Day   Time    Ave.   Ave.  Ave.  Vector   Max.   Stn.    Total    Solar   Ave.  
  of    of     Air    Rel.  Wind   Wind    Wind   Baro.  Precip.   Rad.    Soil  
Year   Day     Temp.  Hum.  Speed  Dir.    Gust   Pres.                    Temp. 
2014   (PST)    F      %     mph   deg.    mph     mb.     in.     W/m2     F   
------------------------------------------------------------------------------
 112   20:10   67.2    13    6.2   139     10.1   914.6    0.00       0    73.2
 112   20:20   66.7    13    6.2   132      9.5   914.8    0.00       0    73.1
 112   20:30   66.4    13    7.0   127      9.9   915.0    0.00       0    72.9
 112   20:40   65.9    13    5.8   131      8.7   915.1    0.00       0    72.8
 112   20:50   65.6    13    7.3   135     10.6   915.2    0.00       0    72.7
 112   21:00   65.6    13    4.7   141      7.8   915.4    0.00       0    72.5
 112   21:10   65.3    13    1.8    69      4.4   915.6    0.00       0    72.4
 112   21:20   63.9    14    1.3    71      2.9   915.6    0.00       0    72.2
 112   21:30   62.9    14    2.1    64      3.4   915.5    0.00       0    72.1
 112   21:40   62.6    14    3.1    66      5.6   915.6    0.00       0    71.9
 112   21:50   61.7    15    2.6   329      7.2   915.6    0.00       0    71.8
 112   22:00   59.8    16    2.5   324      4.8   915.7    0.00       0    71.6
 112   22:10   60.8    16    1.4    83      4.9   915.7    0.00       0    71.5
 112   22:20   61.5    16    1.6   215      3.1   915.7    0.00       0    71.3
 112   22:30   60.7    17    2.3   256      4.2   915.6    0.00       0    71.1
 112   22:40   60.3    17    3.2   253      6.3   915.5    0.00       0    71.0
 112   22:50   59.9    16    3.0   277      6.8   915.6    0.00       0    70.8
 112   23:00   60.0    14    2.2   237      5.3   915.5    0.00       0    70.6
 112   23:10   59.7    12    1.9   261      4.7   915.5    0.00       0    70.4
 112   23:20   59.6    12    1.7   276      4.1   915.5    0.00       0    70.3
 112   23:30   58.9    12    1.5   249      4.1   915.4    0.00       0    70.1
 112   23:40   57.9    14    2.1   268      3.9   915.3    0.00       0    70.0
 112   23:50   57.1    14    0.7   284      2.7   915.4    0.00       0    69.8
 113    0:00   56.3    16    1.2   304      2.3   915.4    0.00       0    69.7
 113    0:10   55.2    15    2.9   331      5.1   915.4    0.00       0    69.5
 113    0:20   54.3    15    2.0    29      3.9   915.6    0.00       0    69.3
 113    0:30   54.1    16    1.6   299      4.6   915.5    0.00       0    69.2
 113    0:40   54.6    16    1.8    86      4.1   915.4    0.00       0    69.0
 113    0:50   55.0    18    1.4   230      3.3   915.4    0.00       0    68.8
 113    1:00   54.8    17    1.5    46      3.4   915.3    0.00       0    68.7
 113    1:10   57.2    14    3.3    36      9.1   915.3    0.00       0    68.5
 113    1:20   57.7    16    1.1   289      3.8   915.4    0.00       0    68.4
 113    1:30   56.9    15    5.3   317     12.8   915.5    0.00       0    68.2
 113    1:40   56.7    16    7.5   318     12.1   915.6    0.00       0    68.1
 113    1:50   55.8    17    6.9   321     13.0   915.8    0.00       0    68.0
 113    2:00   55.3    17    6.6   316     13.4   915.8    0.00       0    67.9
 113    2:10   54.3    18    2.3   336      6.0   915.9    0.00       0    67.8
 113    2:20   53.6    19    5.3   319     13.1   916.0    0.00       0    67.6
 113    2:30   53.8    19    8.6   306     15.8   915.9    0.00       0    67.5
 113    2:40   53.9    19   10.0   305     16.9   916.0    0.00       0    67.4
 113    2:50   53.7    19    8.4   303     14.5   916.0    0.00       0    67.2
 113    3:00   53.6    19    7.9   304     14.0   916.1    0.00       0    67.1
 113    3:10   53.5    20    6.2   300     12.5   916.1    0.00       0    67.0
 113    3:20   53.4    20    5.3   296     11.3   916.1    0.00       0    66.8
 113    3:30   53.4    20    8.8   307     15.7   916.1    0.00       0    66.7
 113    3:40   53.6    20    8.3   303     14.8   916.1    0.00       0    66.6
 113    3:50   53.6    20    8.3   314     12.9   916.3    0.00       0    66.5
 113    4:00   53.4    20    5.2   331     13.4   916.4    0.00       0    66.4
 113    4:10   53.2    20    7.8   317     11.8   916.5    0.00       0    66.3
 113    4:20   53.5    20    9.1   312     13.7   916.5    0.00       0    66.3
 113    4:30   53.8    20    4.7   302      9.4   916.5    0.00       0    66.2
 113    4:40   54.2    20    5.0   301     10.4   916.5    0.00       0    66.1
 113    4:50   54.3    20    5.9   299     11.5   916.6    0.00       0    66.1
 113    5:00   54.5    20    6.0   298     13.9   916.8    0.00       2    66.0
 113    5:10   54.8    20    5.5   300     13.1   916.9    0.00       3    65.9
 113    5:20   55.6    17    3.4   355      8.6   917.2    0.00       8    65.9
 113    5:30   56.1    17    3.3   335      7.3   917.3    0.00      17    65.8
 113    5:40   56.1    18    2.4   293      5.6   917.4    0.00      37    65.8
 113    5:50   56.9    18    1.9   286      4.2   917.5    0.00      64    65.8
 113    6:00   56.9    17    3.2   150      7.2   917.8    0.00      62    65.7
 113    6:10   56.4    19    2.8   280      5.7   918.0    0.00      97    65.7
 113    6:20   57.1    20    5.6   306     10.6   918.3    0.00     105    65.7
 113    6:30   56.8    21    6.7   305     12.0   918.4    0.00     159    65.7
 113    6:40   58.9    18    3.9   296     10.9   918.7    0.00     182    65.8
 113    6:50   59.8    18    5.9   324     12.6   919.0    0.00     149    65.8
 113    7:00   60.0    17    3.1     9      7.8   919.3    0.00     162    65.9
 113    7:10   62.3    15    0.9   343      2.2   919.6    0.00     195    66.1
 113    7:20   64.2    14    1.2   110      3.2   919.9    0.00     415    66.3
 113    7:30   65.1    15    3.3   256      8.5   920.1    0.00     391    66.7
 113    7:40   64.0    14    2.5   176      6.0   920.3    0.00     496    67.0
 113    7:50   66.1    13    2.8   328     10.4   920.4    0.00     494    67.4
 113    8:00   65.0    13    8.5   332     20.6   920.6    0.00     515    67.9
 113    8:10   64.4    14   12.2   327     20.1   920.9    0.00     620    68.3
 113    8:20   64.6    14   11.3   311     21.9   920.9    0.00     662    68.7
 113    8:30   65.0    14   13.5   315     25.1   921.0    0.00     698    69.1
 113    8:40   64.5    13   15.0   323     24.1   921.0    0.00     726    69.4
 113    8:50   64.6    13   13.7   328     23.7   921.0    0.00     771    69.8
 113    9:00   64.9    14   15.5   317     24.0   921.1    0.00     801    70.2
 113    9:10   65.3    14   14.3   321     22.4   921.3    0.00     832    70.5
 113    9:20   65.3    13   14.9   333     25.1   921.3    0.00     864    70.7
 113    9:30   65.6    13   15.1   333     25.4   921.3    0.00     891    70.9
 113    9:40   65.9    13   14.7   325     22.6   921.2    0.00     917    71.1
 113    9:50   66.7    13   12.8   327     22.0   921.2    0.00     931    71.2
 113   10:00   67.5    13   15.1   316     24.5   921.3    0.00     645    71.3
 113   10:10   67.5    13   14.8   324     24.1   921.4    0.00     988    71.3
 113   10:20   67.6    13   16.5   314     24.4   921.5    0.00     990    71.2
 113   10:30   67.7    13   11.9   309     21.0   921.8    0.00    1016    71.2
 113   10:40   68.9    13   16.8   314     25.6   921.8    0.00    1002    71.1
 113   10:50   68.9    13   14.0   322     24.0   921.9    0.00    1007    71.0
 113   11:00   68.8    13   12.9   320     20.6   921.9    0.00    1060    71.0
 113   11:10   69.2    13   13.7   317     21.9   921.7    0.00    1064    71.1
 113   11:20   69.5    13   14.2   316     21.6   921.6    0.00    1035    71.3
 113   11:30   69.8    13   14.4   319     23.5   921.5    0.00     948    71.6
 113   11:40   69.4    13   12.5   332     24.5   921.4    0.00    1088    72.0
 113   11:50   70.0    13   14.4   334     23.9   921.4    0.00    1090    72.5
 113   12:00   69.7    13   13.0   327     22.6   921.4    0.00    1094    73.0
 113   12:10   70.5    13   11.9   307     19.0   921.3    0.00    1079    73.4
 113   12:20   71.0    13    9.4   309     20.8   921.3    0.00     868    73.8
 113   12:30   71.9    12   11.4   312     20.1   921.4    0.00    1072    74.3
 113   12:40   71.7    12    7.7   304     16.2   921.4    0.00    1069    74.7
 113   12:50   72.7    12    6.1   305     19.1   921.4    0.00    1042    75.1
 113   13:00   73.0    12    7.5   298     17.8   921.4    0.00    1040    75.4
 113   13:10   73.2    12    9.1   304     18.0   921.4    0.00    1034    75.8
 113   13:20   73.1    12    6.6   304     15.1   921.3    0.00    1015    76.1
 113   13:30   73.1    11    7.8   318     14.8   921.1    0.00     991    76.5
 113   13:40   73.7    11    8.0   294     17.6   921.0    0.00     974    76.7
 113   13:50   74.5    11    5.2   284     12.3   920.9    0.00     950    77.0
 113   14:00   74.1    11    5.9   297     12.3   920.8    0.00     931    77.2
 113   14:10   74.3    11    4.8   292     11.4   920.8    0.00     905    77.4
 113   14:20   74.3    11    4.5   288     10.6   920.6    0.00     862    77.5
 113   14:30   74.2    11    4.0   303      9.6   920.3    0.00     843    77.6
 113   14:40   74.8    10    5.1   297     11.4   920.3    0.00     800    77.5
 113   14:50   73.9    11    5.4   309     11.2   920.1    0.00     712    77.4
 113   15:00   74.1    10    4.5   296     10.9   919.9    0.00     757    77.2
 113   15:10   74.0    11    5.2   309     11.8   919.8    0.00     701    76.9
 113   15:20   74.4    11    6.1   303     12.7   919.7    0.00     662    76.6
 113   15:30   73.7    10    4.8   293     13.7   919.7    0.00     460    76.3
 113   15:40   73.3    11    4.6   284     14.4   919.6    0.00     531    76.1
 113   15:50   74.1    11    4.3   285      9.9   919.5    0.00     477    75.8
 113   16:00   73.7    11    6.5   308     13.1   919.4    0.00     451    75.6
 113   16:10   73.2    11    7.2   303     13.6   919.3    0.00     414    75.4
 113   16:20   73.3    11    4.1   286      8.8   919.2    0.00     405    75.2
 113   16:30   73.3    11    5.6   302     10.9   919.2    0.00     377    75.0
 113   16:40   73.3    11    4.7   297     13.4   919.2    0.00     210    74.8
 113   16:50   72.7    11    7.9   316     14.2   919.3    0.00      78    74.7
 113   17:00   72.6    11    5.3   302     12.3   919.3    0.00      72    74.5
 113   17:10   72.6    11    4.8   303     10.3   919.4    0.00      84    74.3
 113   17:20   72.5    11    5.3   302      9.3   919.4    0.00      72    74.2
 113   17:30   72.1    11    4.3   300      8.5   919.3    0.00      55    74.0
 113   17:40   71.8    12    5.6   313      9.9   919.3    0.00      59    73.9
 113   17:50   71.2    13    4.7   312      7.7   919.2    0.00      53    73.7
 113   18:00   71.0    12    4.4   312      7.3   919.2    0.00      32    73.6
 113   18:10   70.8    12    1.6   296      4.1   919.1    0.00      33    73.4
 113   18:20   70.4    12    0.7   284      2.0   919.1    0.00      19    73.3
 113   18:30   69.5    13    0.1   280      1.1   919.1    0.00       7    73.1
 113   18:40   68.4    13    0.1   267      1.1   919.1    0.00       3    72.9
 113   18:50   67.3    14    0.1   262      0.9   919.1    0.00       1    72.8
 113   19:00   66.6    13    0.1   244      0.7   919.1    0.00       0    72.6
 113   19:10   65.9    13    0.1   263      1.3   919.1    0.00       0    72.4
 113   19:20   64.9    14    0.2   335      1.5   919.1    0.00       0    72.2
 113   19:30   66.1    13    0.1    27      1.1   919.1    0.00       0    72.1
 113   19:40   66.6    13    0.5    94      2.1   919.2    0.00       0    71.9
 113   19:50   66.6    12    2.0   114      3.0   919.3    0.00       0    71.7
 113   20:00   66.2    13    2.6   107      4.5   919.4    0.00       0    71.5

Return to Pahrump, Nevada graphs page.


Western Regional Climate Center,wrcc@dri.edu